sensor_id;sensor_type;location;lat;lon;timestamp;temperature;humidity
1686;DHT22;840;47.980;7.830;2023-07-31T00:01:39;19.10;99.90
1686;DHT22;840;47.980;7.830;2023-07-31T00:04:05;19.00;99.90
1686;DHT22;840;47.980;7.830;2023-07-31T00:06:32;18.90;99.90
1686;DHT22;840;47.980;7.830;2023-07-31T00:08:59;18.90;99.90
1686;DHT22;840;47.980;7.830;2023-07-31T00:11:27;18.80;99.90
1686;DHT22;840;47.980;7.830;2023-07-31T00:13:54;18.80;99.90
1686;DHT22;840;47.980;7.830;2023-07-31T00:16:21;18.70;99.90
1686;DHT22;840;47.980;7.830;2023-07-31T00:18:48;18.60;99.90
1686;DHT22;840;47.980;7.830;2023-07-31T00:21:14;18.60;99.90
1686;DHT22;840;47.980;7.830;2023-07-31T00:23:41;18.50;99.90
1686;DHT22;840;47.980;7.830;2023-07-31T00:26:08;18.50;99.90
1686;DHT22;840;47.980;7.830;2023-07-31T00:28:36;18.50;99.90
1686;DHT22;840;47.980;7.830;2023-07-31T00:31:03;18.50;99.90
1686;DHT22;840;47.980;7.830;2023-07-31T00:33:30;18.40;99.90
1686;DHT22;840;47.980;7.830;2023-07-31T00:35:57;18.40;99.90
1686;DHT22;840;47.980;7.830;2023-07-31T00:38:24;18.40;99.90
1686;DHT22;840;47.980;7.830;2023-07-31T00:40:51;18.30;99.90
1686;DHT22;840;47.980;7.830;2023-07-31T00:43:18;18.30;99.90
1686;DHT22;840;47.980;7.830;2023-07-31T00:45:46;18.30;99.90
1686;DHT22;840;47.980;7.830;2023-07-31T00:48:13;18.20;99.90
1686;DHT22;840;47.980;7.830;2023-07-31T00:50:40;18.20;99.90
1686;DHT22;840;47.980;7.830;2023-07-31T00:53:07;18.10;99.90
1686;DHT22;840;47.980;7.830;2023-07-31T00:55:34;18.10;99.90
1686;DHT22;840;47.980;7.830;2023-07-31T00:58:01;18.00;99.90
1686;DHT22;840;47.980;7.830;2023-07-31T01:00:28;18.00;99.90
1686;DHT22;840;47.980;7.830;2023-07-31T01:02:56;18.00;99.90
1686;DHT22;840;47.980;7.830;2023-07-31T01:05:29;17.90;99.90
1686;DHT22;840;47.980;7.830;2023-07-31T01:08:04;17.80;99.90
1686;DHT22;840;47.980;7.830;2023-07-31T01:10:39;17.80;99.90
1686;DHT22;840;47.980;7.830;2023-07-31T01:13:08;17.70;99.90
1686;DHT22;840;47.980;7.830;2023-07-31T01:15:36;17.70;99.90
1686;DHT22;840;47.980;7.830;2023-07-31T01:18:05;17.70;99.90
1686;DHT22;840;47.980;7.830;2023-07-31T01:20:33;17.70;99.90
1686;DHT22;840;47.980;7.830;2023-07-31T01:23:42;17.70;99.90
1686;DHT22;840;47.980;7.830;2023-07-31T01:26:19;17.70;99.90
1686;DHT22;840;47.980;7.830;2023-07-31T01:28:53;17.60;99.90
1686;DHT22;840;47.980;7.830;2023-07-31T01:31:24;17.60;99.90
1686;DHT22;840;47.980;7.830;2023-07-31T01:33:53;17.60;99.90
1686;DHT22;840;47.980;7.830;2023-07-31T01:36:21;17.50;99.90
1686;DHT22;840;47.980;7.830;2023-07-31T01:38:48;17.50;99.90
1686;DHT22;840;47.980;7.830;2023-07-31T01:41:18;17.50;99.90
1686;DHT22;840;47.980;7.830;2023-07-31T01:43:45;17.50;99.90
1686;DHT22;840;47.980;7.830;2023-07-31T01:46:11;17.50;99.90
1686;DHT22;840;47.980;7.830;2023-07-31T01:48:38;17.50;99.90
1686;DHT22;840;47.980;7.830;2023-07-31T01:51:05;17.50;99.90
1686;DHT22;840;47.980;7.830;2023-07-31T01:53:32;17.50;99.90
1686;DHT22;840;47.980;7.830;2023-07-31T01:55:59;17.50;99.90
1686;DHT22;840;47.980;7.830;2023-07-31T01:58:27;17.50;99.90
1686;DHT22;840;47.980;7.830;2023-07-31T02:00:53;17.50;99.90
1686;DHT22;840;47.980;7.830;2023-07-31T02:03:20;17.50;99.90
1686;DHT22;840;47.980;7.830;2023-07-31T02:05:48;17.40;99.90
1686;DHT22;840;47.980;7.830;2023-07-31T02:08:15;17.40;99.90
1686;DHT22;840;47.980;7.830;2023-07-31T02:10:42;17.40;99.90
1686;DHT22;840;47.980;7.830;2023-07-31T02:13:09;17.40;99.90
1686;DHT22;840;47.980;7.830;2023-07-31T02:15:37;17.30;99.90
1686;DHT22;840;47.980;7.830;2023-07-31T02:18:04;17.30;99.90
1686;DHT22;840;47.980;7.830;2023-07-31T02:20:33;17.30;99.90
1686;DHT22;840;47.980;7.830;2023-07-31T02:23:00;17.30;99.90
1686;DHT22;840;47.980;7.830;2023-07-31T02:25:27;17.30;99.90
1686;DHT22;840;47.980;7.830;2023-07-31T02:27:54;17.20;99.90
1686;DHT22;840;47.980;7.830;2023-07-31T02:30:21;17.20;99.90
1686;DHT22;840;47.980;7.830;2023-07-31T02:32:49;17.20;99.90
1686;DHT22;840;47.980;7.830;2023-07-31T02:35:16;17.20;99.90
1686;DHT22;840;47.980;7.830;2023-07-31T02:37:44;17.20;99.90
1686;DHT22;840;47.980;7.830;2023-07-31T02:40:11;17.20;99.90
1686;DHT22;840;47.980;7.830;2023-07-31T02:42:38;17.20;99.90
1686;DHT22;840;47.980;7.830;2023-07-31T02:45:06;17.10;99.90
1686;DHT22;840;47.980;7.830;2023-07-31T02:47:33;17.10;99.90
1686;DHT22;840;47.980;7.830;2023-07-31T02:50:01;17.00;99.90
1686;DHT22;840;47.980;7.830;2023-07-31T02:52:28;17.00;99.90
1686;DHT22;840;47.980;7.830;2023-07-31T02:54:55;17.00;99.90
1686;DHT22;840;47.980;7.830;2023-07-31T02:57:21;16.90;99.90
1686;DHT22;840;47.980;7.830;2023-07-31T02:59:48;16.90;99.90
1686;DHT22;840;47.980;7.830;2023-07-31T03:02:15;16.70;99.90
1686;DHT22;840;47.980;7.830;2023-07-31T03:04:41;16.70;99.90
1686;DHT22;840;47.980;7.830;2023-07-31T03:07:10;16.70;99.90
1686;DHT22;840;47.980;7.830;2023-07-31T03:09:36;16.60;99.90
1686;DHT22;840;47.980;7.830;2023-07-31T03:12:03;16.60;99.90
1686;DHT22;840;47.980;7.830;2023-07-31T03:14:30;16.70;99.90
1686;DHT22;840;47.980;7.830;2023-07-31T03:16:57;16.60;99.90
1686;DHT22;840;47.980;7.830;2023-07-31T03:19:24;16.60;99.90
1686;DHT22;840;47.980;7.830;2023-07-31T03:21:50;16.70;99.90
1686;DHT22;840;47.980;7.830;2023-07-31T03:24:18;16.70;99.90
1686;DHT22;840;47.980;7.830;2023-07-31T03:26:45;16.70;99.90
1686;DHT22;840;47.980;7.830;2023-07-31T03:29:12;16.70;99.90
1686;DHT22;840;47.980;7.830;2023-07-31T03:31:39;16.70;99.90
1686;DHT22;840;47.980;7.830;2023-07-31T03:34:05;16.70;99.90
1686;DHT22;840;47.980;7.830;2023-07-31T03:36:32;16.70;99.90
1686;DHT22;840;47.980;7.830;2023-07-31T03:38:59;16.60;99.90
1686;DHT22;840;47.980;7.830;2023-07-31T03:41:27;16.60;99.90
1686;DHT22;840;47.980;7.830;2023-07-31T03:43:54;16.60;99.90
1686;DHT22;840;47.980;7.830;2023-07-31T03:46:21;16.60;99.90
1686;DHT22;840;47.980;7.830;2023-07-31T03:48:48;16.70;99.90
1686;DHT22;840;47.980;7.830;2023-07-31T03:51:15;16.70;99.90
1686;DHT22;840;47.980;7.830;2023-07-31T03:53:42;16.70;99.90
1686;DHT22;840;47.980;7.830;2023-07-31T03:56:08;16.70;99.90
1686;DHT22;840;47.980;7.830;2023-07-31T03:58:37;16.70;99.90
1686;DHT22;840;47.980;7.830;2023-07-31T04:01:03;16.70;99.90
1686;DHT22;840;47.980;7.830;2023-07-31T04:03:30;16.70;99.90
1686;DHT22;840;47.980;7.830;2023-07-31T04:05:58;16.70;99.90
1686;DHT22;840;47.980;7.830;2023-07-31T04:08:25;16.70;99.90
1686;DHT22;840;47.980;7.830;2023-07-31T04:10:52;16.70;99.90
1686;DHT22;840;47.980;7.830;2023-07-31T04:13:18;16.70;99.90
1686;DHT22;840;47.980;7.830;2023-07-31T04:15:49;16.70;99.90
1686;DHT22;840;47.980;7.830;2023-07-31T04:18:16;16.70;99.90
1686;DHT22;840;47.980;7.830;2023-07-31T04:20:43;16.70;99.90
1686;DHT22;840;47.980;7.830;2023-07-31T04:23:10;16.70;99.90
1686;DHT22;840;47.980;7.830;2023-07-31T04:25:36;16.80;99.90
1686;DHT22;840;47.980;7.830;2023-07-31T04:28:04;16.80;99.90
1686;DHT22;840;47.980;7.830;2023-07-31T04:30:30;16.90;99.90
1686;DHT22;840;47.980;7.830;2023-07-31T04:32:59;17.00;99.90
1686;DHT22;840;47.980;7.830;2023-07-31T04:35:25;17.10;99.90
1686;DHT22;840;47.980;7.830;2023-07-31T04:37:52;17.20;99.90
1686;DHT22;840;47.980;7.830;2023-07-31T04:40:19;17.20;99.90
1686;DHT22;840;47.980;7.830;2023-07-31T04:42:45;17.30;99.90
1686;DHT22;840;47.980;7.830;2023-07-31T04:45:12;17.30;99.90
1686;DHT22;840;47.980;7.830;2023-07-31T04:47:39;17.40;99.90
1686;DHT22;840;47.980;7.830;2023-07-31T04:50:08;17.40;99.90
1686;DHT22;840;47.980;7.830;2023-07-31T04:52:35;17.40;99.90
1686;DHT22;840;47.980;7.830;2023-07-31T04:55:02;17.40;99.90
1686;DHT22;840;47.980;7.830;2023-07-31T04:57:29;17.40;99.90
1686;DHT22;840;47.980;7.830;2023-07-31T04:59:56;17.50;99.90
1686;DHT22;840;47.980;7.830;2023-07-31T05:02:22;17.50;99.90
1686;DHT22;840;47.980;7.830;2023-07-31T05:04:50;17.50;99.90
1686;DHT22;840;47.980;7.830;2023-07-31T05:07:18;17.60;99.90
1686;DHT22;840;47.980;7.830;2023-07-31T05:09:44;17.60;99.90
1686;DHT22;840;47.980;7.830;2023-07-31T05:12:11;17.60;99.90
1686;DHT22;840;47.980;7.830;2023-07-31T05:14:38;17.70;99.90
1686;DHT22;840;47.980;7.830;2023-07-31T05:17:05;17.70;99.90
1686;DHT22;840;47.980;7.830;2023-07-31T05:19:32;17.70;99.90
1686;DHT22;840;47.980;7.830;2023-07-31T05:21:58;17.80;99.90
1686;DHT22;840;47.980;7.830;2023-07-31T05:24:27;17.80;99.90
1686;DHT22;840;47.980;7.830;2023-07-31T05:26:53;17.80;99.90
1686;DHT22;840;47.980;7.830;2023-07-31T05:29:20;17.90;99.90
1686;DHT22;840;47.980;7.830;2023-07-31T05:31:47;18.00;99.90
1686;DHT22;840;47.980;7.830;2023-07-31T05:34:13;18.00;99.90
1686;DHT22;840;47.980;7.830;2023-07-31T05:36:40;18.10;99.90
1686;DHT22;840;47.980;7.830;2023-07-31T05:39:07;18.10;99.90
1686;DHT22;840;47.980;7.830;2023-07-31T05:41:35;18.20;99.90
1686;DHT22;840;47.980;7.830;2023-07-31T05:44:02;18.30;99.90
1686;DHT22;840;47.980;7.830;2023-07-31T05:46:29;18.30;99.90
1686;DHT22;840;47.980;7.830;2023-07-31T05:48:56;18.40;99.90
1686;DHT22;840;47.980;7.830;2023-07-31T05:51:25;18.40;99.90
1686;DHT22;840;47.980;7.830;2023-07-31T05:53:52;18.50;99.90
1686;DHT22;840;47.980;7.830;2023-07-31T05:56:18;18.50;99.90
1686;DHT22;840;47.980;7.830;2023-07-31T05:58:46;18.60;99.90
1686;DHT22;840;47.980;7.830;2023-07-31T06:01:15;18.60;99.90
1686;DHT22;840;47.980;7.830;2023-07-31T06:03:42;18.70;99.90
1686;DHT22;840;47.980;7.830;2023-07-31T06:06:09;18.70;99.90
1686;DHT22;840;47.980;7.830;2023-07-31T06:08:36;18.80;99.90
1686;DHT22;840;47.980;7.830;2023-07-31T06:11:03;18.80;99.90
1686;DHT22;840;47.980;7.830;2023-07-31T06:13:29;19.00;99.90
1686;DHT22;840;47.980;7.830;2023-07-31T06:15:57;19.10;99.90
1686;DHT22;840;47.980;7.830;2023-07-31T06:18:25;19.10;99.90
1686;DHT22;840;47.980;7.830;2023-07-31T06:20:52;19.20;99.90
1686;DHT22;840;47.980;7.830;2023-07-31T06:23:19;19.20;99.90
1686;DHT22;840;47.980;7.830;2023-07-31T06:25:46;19.30;99.90
1686;DHT22;840;47.980;7.830;2023-07-31T06:28:12;19.30;99.90
1686;DHT22;840;47.980;7.830;2023-07-31T06:30:39;19.30;99.90
1686;DHT22;840;47.980;7.830;2023-07-31T06:33:08;19.30;99.90
1686;DHT22;840;47.980;7.830;2023-07-31T06:35:35;19.40;99.90
1686;DHT22;840;47.980;7.830;2023-07-31T06:38:02;19.50;99.90
1686;DHT22;840;47.980;7.830;2023-07-31T06:40:29;19.50;99.90
1686;DHT22;840;47.980;7.830;2023-07-31T06:42:55;19.40;99.90
1686;DHT22;840;47.980;7.830;2023-07-31T06:45:22;19.40;99.90
1686;DHT22;840;47.980;7.830;2023-07-31T06:47:49;19.40;99.90
1686;DHT22;840;47.980;7.830;2023-07-31T06:50:17;19.40;99.90
1686;DHT22;840;47.980;7.830;2023-07-31T06:52:44;19.50;99.90
1686;DHT22;840;47.980;7.830;2023-07-31T06:55:19;19.50;99.90
1686;DHT22;840;47.980;7.830;2023-07-31T06:57:46;19.60;99.90
1686;DHT22;840;47.980;7.830;2023-07-31T07:00:13;19.70;99.90
1686;DHT22;840;47.980;7.830;2023-07-31T07:02:40;19.70;99.90
1686;DHT22;840;47.980;7.830;2023-07-31T07:05:07;19.80;99.90
1686;DHT22;840;47.980;7.830;2023-07-31T07:07:36;19.80;99.90
1686;DHT22;840;47.980;7.830;2023-07-31T07:10:03;19.90;99.90
1686;DHT22;840;47.980;7.830;2023-07-31T07:12:31;19.90;99.90
1686;DHT22;840;47.980;7.830;2023-07-31T07:14:59;20.00;99.90
1686;DHT22;840;47.980;7.830;2023-07-31T07:17:28;19.90;99.90
1686;DHT22;840;47.980;7.830;2023-07-31T07:19:56;19.90;99.90
1686;DHT22;840;47.980;7.830;2023-07-31T07:22:23;19.80;99.90
1686;DHT22;840;47.980;7.830;2023-07-31T07:24:51;19.80;99.90
1686;DHT22;840;47.980;7.830;2023-07-31T07:27:18;19.80;99.90
1686;DHT22;840;47.980;7.830;2023-07-31T07:29:45;19.80;99.90
1686;DHT22;840;47.980;7.830;2023-07-31T07:32:13;19.90;99.90
1686;DHT22;840;47.980;7.830;2023-07-31T07:34:39;19.90;99.90
1686;DHT22;840;47.980;7.830;2023-07-31T07:37:06;19.90;99.90
1686;DHT22;840;47.980;7.830;2023-07-31T07:39:34;20.00;99.90
1686;DHT22;840;47.980;7.830;2023-07-31T07:42:02;20.10;99.90
1686;DHT22;840;47.980;7.830;2023-07-31T07:44:29;20.20;99.90
1686;DHT22;840;47.980;7.830;2023-07-31T07:46:55;20.30;99.90
1686;DHT22;840;47.980;7.830;2023-07-31T07:49:22;20.50;99.90
1686;DHT22;840;47.980;7.830;2023-07-31T07:51:49;20.60;99.90
1686;DHT22;840;47.980;7.830;2023-07-31T07:54:16;20.80;99.90
1686;DHT22;840;47.980;7.830;2023-07-31T07:56:43;21.00;99.90
1686;DHT22;840;47.980;7.830;2023-07-31T07:59:11;21.20;99.90
1686;DHT22;840;47.980;7.830;2023-07-31T08:01:38;21.30;99.90
1686;DHT22;840;47.980;7.830;2023-07-31T08:04:05;21.30;99.90
1686;DHT22;840;47.980;7.830;2023-07-31T08:06:31;21.20;99.90
1686;DHT22;840;47.980;7.830;2023-07-31T08:08:59;21.20;99.90
1686;DHT22;840;47.980;7.830;2023-07-31T08:11:31;21.20;99.90
1686;DHT22;840;47.980;7.830;2023-07-31T08:13:58;21.30;99.90
1686;DHT22;840;47.980;7.830;2023-07-31T08:16:26;21.30;99.90
1686;DHT22;840;47.980;7.830;2023-07-31T08:18:53;21.30;99.90
1686;DHT22;840;47.980;7.830;2023-07-31T08:21:21;21.30;99.90
1686;DHT22;840;47.980;7.830;2023-07-31T08:23:48;21.20;99.90
1686;DHT22;840;47.980;7.830;2023-07-31T08:26:15;21.00;99.90
1686;DHT22;840;47.980;7.830;2023-07-31T08:28:42;21.00;99.90
1686;DHT22;840;47.980;7.830;2023-07-31T08:31:09;20.90;99.90
1686;DHT22;840;47.980;7.830;2023-07-31T08:33:37;21.00;99.90
1686;DHT22;840;47.980;7.830;2023-07-31T08:36:05;21.10;99.90
1686;DHT22;840;47.980;7.830;2023-07-31T08:38:32;21.10;99.90
1686;DHT22;840;47.980;7.830;2023-07-31T08:40:59;21.20;99.90
1686;DHT22;840;47.980;7.830;2023-07-31T08:43:26;21.30;99.90
1686;DHT22;840;47.980;7.830;2023-07-31T08:45:53;21.30;99.90
1686;DHT22;840;47.980;7.830;2023-07-31T08:48:21;21.40;99.90
1686;DHT22;840;47.980;7.830;2023-07-31T08:50:50;21.40;99.90
1686;DHT22;840;47.980;7.830;2023-07-31T08:53:17;21.40;99.90
1686;DHT22;840;47.980;7.830;2023-07-31T08:55:44;21.50;99.90
1686;DHT22;840;47.980;7.830;2023-07-31T08:58:13;21.50;99.90
1686;DHT22;840;47.980;7.830;2023-07-31T09:00:40;21.40;99.90
1686;DHT22;840;47.980;7.830;2023-07-31T09:03:12;21.40;99.90
1686;DHT22;840;47.980;7.830;2023-07-31T09:05:42;21.40;99.90
1686;DHT22;840;47.980;7.830;2023-07-31T09:08:12;21.50;99.90
1686;DHT22;840;47.980;7.830;2023-07-31T09:10:41;21.60;99.90
1686;DHT22;840;47.980;7.830;2023-07-31T09:13:08;21.60;99.90
1686;DHT22;840;47.980;7.830;2023-07-31T09:15:35;21.60;99.90
1686;DHT22;840;47.980;7.830;2023-07-31T09:18:03;21.70;99.90
1686;DHT22;840;47.980;7.830;2023-07-31T09:20:30;21.80;99.90
1686;DHT22;840;47.980;7.830;2023-07-31T09:23:05;21.80;99.90
1686;DHT22;840;47.980;7.830;2023-07-31T09:25:35;21.80;99.90
1686;DHT22;840;47.980;7.830;2023-07-31T09:28:03;21.80;99.90
1686;DHT22;840;47.980;7.830;2023-07-31T09:30:30;21.80;99.90
1686;DHT22;840;47.980;7.830;2023-07-31T09:33:01;21.80;99.90
1686;DHT22;840;47.980;7.830;2023-07-31T09:35:29;21.80;99.90
1686;DHT22;840;47.980;7.830;2023-07-31T09:37:57;21.90;99.90
1686;DHT22;840;47.980;7.830;2023-07-31T09:40:25;22.00;99.90
1686;DHT22;840;47.980;7.830;2023-07-31T09:42:55;22.10;99.90
1686;DHT22;840;47.980;7.830;2023-07-31T09:45:23;22.10;99.90
1686;DHT22;840;47.980;7.830;2023-07-31T09:47:50;22.10;99.90
1686;DHT22;840;47.980;7.830;2023-07-31T09:50:17;22.20;99.90
1686;DHT22;840;47.980;7.830;2023-07-31T09:52:44;22.20;99.90
1686;DHT22;840;47.980;7.830;2023-07-31T09:55:11;22.30;99.90
1686;DHT22;840;47.980;7.830;2023-07-31T09:57:40;22.30;99.90
1686;DHT22;840;47.980;7.830;2023-07-31T10:00:10;22.30;99.90
1686;DHT22;840;47.980;7.830;2023-07-31T10:02:38;22.30;99.90
1686;DHT22;840;47.980;7.830;2023-07-31T10:05:06;22.40;99.90
1686;DHT22;840;47.980;7.830;2023-07-31T10:07:37;22.40;99.90
1686;DHT22;840;47.980;7.830;2023-07-31T10:10:05;22.50;99.90
1686;DHT22;840;47.980;7.830;2023-07-31T10:12:34;22.50;99.90
1686;DHT22;840;47.980;7.830;2023-07-31T10:15:01;22.50;99.90
1686;DHT22;840;47.980;7.830;2023-07-31T10:17:29;22.50;99.90
1686;DHT22;840;47.980;7.830;2023-07-31T10:19:58;22.60;99.90
1686;DHT22;840;47.980;7.830;2023-07-31T10:22:26;22.60;99.90
1686;DHT22;840;47.980;7.830;2023-07-31T10:24:55;22.60;99.90
1686;DHT22;840;47.980;7.830;2023-07-31T10:27:24;22.60;99.90
1686;DHT22;840;47.980;7.830;2023-07-31T10:29:52;22.60;99.90
1686;DHT22;840;47.980;7.830;2023-07-31T10:32:20;22.70;99.90
1686;DHT22;840;47.980;7.830;2023-07-31T10:34:49;22.70;99.90
1686;DHT22;840;47.980;7.830;2023-07-31T10:37:23;22.70;99.90
1686;DHT22;840;47.980;7.830;2023-07-31T10:39:58;22.80;99.90
1686;DHT22;840;47.980;7.830;2023-07-31T10:42:29;22.90;99.90
1686;DHT22;840;47.980;7.830;2023-07-31T10:44:58;23.00;99.90
1686;DHT22;840;47.980;7.830;2023-07-31T10:47:25;23.20;99.90
1686;DHT22;840;47.980;7.830;2023-07-31T10:49:53;23.40;99.90
1686;DHT22;840;47.980;7.830;2023-07-31T10:52:37;23.40;99.90
1686;DHT22;840;47.980;7.830;2023-07-31T10:55:14;23.50;99.90
1686;DHT22;840;47.980;7.830;2023-07-31T10:57:44;23.70;99.90
1686;DHT22;840;47.980;7.830;2023-07-31T11:00:18;23.90;99.90
1686;DHT22;840;47.980;7.830;2023-07-31T11:02:56;24.00;99.90
1686;DHT22;840;47.980;7.830;2023-07-31T11:05:41;23.90;99.90
1686;DHT22;840;47.980;7.830;2023-07-31T11:08:16;23.90;99.90
1686;DHT22;840;47.980;7.830;2023-07-31T11:10:43;23.80;99.90
1686;DHT22;840;47.980;7.830;2023-07-31T11:13:11;23.80;99.90
1686;DHT22;840;47.980;7.830;2023-07-31T11:15:38;23.80;99.90
1686;DHT22;840;47.980;7.830;2023-07-31T11:18:05;23.70;99.90
1686;DHT22;840;47.980;7.830;2023-07-31T11:20:36;23.80;99.90
1686;DHT22;840;47.980;7.830;2023-07-31T11:23:04;23.90;99.90
1686;DHT22;840;47.980;7.830;2023-07-31T11:25:32;23.90;99.90
1686;DHT22;840;47.980;7.830;2023-07-31T11:28:03;24.00;99.90
1686;DHT22;840;47.980;7.830;2023-07-31T11:30:29;24.10;99.90
1686;DHT22;840;47.980;7.830;2023-07-31T11:32:56;24.30;99.90
1686;DHT22;840;47.980;7.830;2023-07-31T11:35:23;24.50;99.90
1686;DHT22;840;47.980;7.830;2023-07-31T11:37:51;24.60;99.90
1686;DHT22;840;47.980;7.830;2023-07-31T11:40:18;24.80;99.90
1686;DHT22;840;47.980;7.830;2023-07-31T11:42:45;25.00;99.90
1686;DHT22;840;47.980;7.830;2023-07-31T11:45:12;25.10;99.90
1686;DHT22;840;47.980;7.830;2023-07-31T11:47:39;25.10;99.90
1686;DHT22;840;47.980;7.830;2023-07-31T11:50:09;25.00;99.90
1686;DHT22;840;47.980;7.830;2023-07-31T11:52:44;24.90;99.90
1686;DHT22;840;47.980;7.830;2023-07-31T11:55:14;25.10;99.90
1686;DHT22;840;47.980;7.830;2023-07-31T11:57:43;25.20;99.90
1686;DHT22;840;47.980;7.830;2023-07-31T12:00:13;25.30;99.90
1686;DHT22;840;47.980;7.830;2023-07-31T12:02:41;25.30;99.90
1686;DHT22;840;47.980;7.830;2023-07-31T12:05:11;25.30;99.90
1686;DHT22;840;47.980;7.830;2023-07-31T12:07:51;25.30;99.90
1686;DHT22;840;47.980;7.830;2023-07-31T12:10:27;25.20;99.90
1686;DHT22;840;47.980;7.830;2023-07-31T12:13:01;25.10;99.90
1686;DHT22;840;47.980;7.830;2023-07-31T12:15:39;24.90;99.90
1686;DHT22;840;47.980;7.830;2023-07-31T12:18:07;24.80;99.90
1686;DHT22;840;47.980;7.830;2023-07-31T12:20:34;24.90;99.90
1686;DHT22;840;47.980;7.830;2023-07-31T12:23:02;25.10;99.90
1686;DHT22;840;47.980;7.830;2023-07-31T12:25:31;25.20;99.90
1686;DHT22;840;47.980;7.830;2023-07-31T12:28:03;25.30;99.90
1686;DHT22;840;47.980;7.830;2023-07-31T12:30:33;25.40;99.90
1686;DHT22;840;47.980;7.830;2023-07-31T12:33:03;25.60;99.90
1686;DHT22;840;47.980;7.830;2023-07-31T12:35:35;25.70;99.90
1686;DHT22;840;47.980;7.830;2023-07-31T12:38:02;25.50;99.90
1686;DHT22;840;47.980;7.830;2023-07-31T12:40:30;25.40;99.90
1686;DHT22;840;47.980;7.830;2023-07-31T12:42:57;25.40;99.90
1686;DHT22;840;47.980;7.830;2023-07-31T12:45:24;25.70;99.90
1686;DHT22;840;47.980;7.830;2023-07-31T12:47:51;26.10;99.90
1686;DHT22;840;47.980;7.830;2023-07-31T12:50:18;26.60;99.30
1686;DHT22;840;47.980;7.830;2023-07-31T12:52:44;27.10;99.10
1686;DHT22;840;47.980;7.830;2023-07-31T12:55:11;27.50;99.90
1686;DHT22;840;47.980;7.830;2023-07-31T12:57:39;28.00;99.30
1686;DHT22;840;47.980;7.830;2023-07-31T13:00:08;28.20;95.90
1686;DHT22;840;47.980;7.830;2023-07-31T13:02:35;28.20;96.30
1686;DHT22;840;47.980;7.830;2023-07-31T13:05:01;28.30;98.30
1686;DHT22;840;47.980;7.830;2023-07-31T13:07:28;28.30;94.90
1686;DHT22;840;47.980;7.830;2023-07-31T13:09:55;28.40;94.50
1686;DHT22;840;47.980;7.830;2023-07-31T13:12:22;28.50;96.70
1686;DHT22;840;47.980;7.830;2023-07-31T13:14:50;28.60;95.20
1686;DHT22;840;47.980;7.830;2023-07-31T13:17:17;28.50;93.90
1686;DHT22;840;47.980;7.830;2023-07-31T13:19:44;28.00;94.30
1686;DHT22;840;47.980;7.830;2023-07-31T13:22:11;27.60;93.50
1686;DHT22;840;47.980;7.830;2023-07-31T13:24:37;27.40;94.50
1686;DHT22;840;47.980;7.830;2023-07-31T13:27:04;27.10;94.50
1686;DHT22;840;47.980;7.830;2023-07-31T13:29:31;26.90;95.60
1686;DHT22;840;47.980;7.830;2023-07-31T13:31:59;26.90;94.80
1686;DHT22;840;47.980;7.830;2023-07-31T13:34:26;26.80;94.70
1686;DHT22;840;47.980;7.830;2023-07-31T13:36:54;26.70;95.90
1686;DHT22;840;47.980;7.830;2023-07-31T13:39:21;26.70;96.60
1686;DHT22;840;47.980;7.830;2023-07-31T13:41:48;26.90;97.50
1686;DHT22;840;47.980;7.830;2023-07-31T13:44:15;26.90;95.00
1686;DHT22;840;47.980;7.830;2023-07-31T13:46:41;26.90;95.00
1686;DHT22;840;47.980;7.830;2023-07-31T13:49:10;26.80;95.50
1686;DHT22;840;47.980;7.830;2023-07-31T13:51:36;26.80;97.20
1686;DHT22;840;47.980;7.830;2023-07-31T13:54:04;26.90;98.30
1686;DHT22;840;47.980;7.830;2023-07-31T13:56:32;27.10;97.70
1686;DHT22;840;47.980;7.830;2023-07-31T13:58:59;27.40;96.90
1686;DHT22;840;47.980;7.830;2023-07-31T14:01:26;27.60;97.80
1686;DHT22;840;47.980;7.830;2023-07-31T14:03:53;28.00;96.60
1686;DHT22;840;47.980;7.830;2023-07-31T14:06:21;28.40;96.00
1686;DHT22;840;47.980;7.830;2023-07-31T14:08:48;28.80;94.20
1686;DHT22;840;47.980;7.830;2023-07-31T14:11:15;29.00;95.20
1686;DHT22;840;47.980;7.830;2023-07-31T14:13:41;29.10;93.50
1686;DHT22;840;47.980;7.830;2023-07-31T14:16:08;29.30;93.50
1686;DHT22;840;47.980;7.830;2023-07-31T14:18:35;29.30;94.20
1686;DHT22;840;47.980;7.830;2023-07-31T14:21:02;29.30;93.90
1686;DHT22;840;47.980;7.830;2023-07-31T14:23:30;29.20;93.60
1686;DHT22;840;47.980;7.830;2023-07-31T14:25:56;29.10;92.10
1686;DHT22;840;47.980;7.830;2023-07-31T14:28:24;28.90;92.90
1686;DHT22;840;47.980;7.830;2023-07-31T14:30:50;28.70;92.00
1686;DHT22;840;47.980;7.830;2023-07-31T14:33:17;28.60;93.40
1686;DHT22;840;47.980;7.830;2023-07-31T14:35:44;28.60;92.70
1686;DHT22;840;47.980;7.830;2023-07-31T14:38:11;28.60;94.10
1686;DHT22;840;47.980;7.830;2023-07-31T14:40:39;28.70;92.60
1686;DHT22;840;47.980;7.830;2023-07-31T14:43:06;28.70;90.40
1686;DHT22;840;47.980;7.830;2023-07-31T14:45:32;28.70;91.00
1686;DHT22;840;47.980;7.830;2023-07-31T14:47:59;28.70;92.00
1686;DHT22;840;47.980;7.830;2023-07-31T14:50:26;28.80;93.20
1686;DHT22;840;47.980;7.830;2023-07-31T14:52:53;28.80;93.10
1686;DHT22;840;47.980;7.830;2023-07-31T14:55:20;28.90;92.30
1686;DHT22;840;47.980;7.830;2023-07-31T14:57:48;29.00;92.40
1686;DHT22;840;47.980;7.830;2023-07-31T15:00:15;29.00;92.10
1686;DHT22;840;47.980;7.830;2023-07-31T15:02:42;29.00;92.40
1686;DHT22;840;47.980;7.830;2023-07-31T15:05:09;28.80;91.30
1686;DHT22;840;47.980;7.830;2023-07-31T15:07:35;28.80;91.50
1686;DHT22;840;47.980;7.830;2023-07-31T15:10:03;28.90;90.90
1686;DHT22;840;47.980;7.830;2023-07-31T15:12:29;29.00;91.80
1686;DHT22;840;47.980;7.830;2023-07-31T15:14:58;29.20;90.80
1686;DHT22;840;47.980;7.830;2023-07-31T15:17:25;29.40;91.20
1686;DHT22;840;47.980;7.830;2023-07-31T15:19:51;29.30;90.70
1686;DHT22;840;47.980;7.830;2023-07-31T15:22:18;29.30;91.30
1686;DHT22;840;47.980;7.830;2023-07-31T15:24:45;29.30;90.50
1686;DHT22;840;47.980;7.830;2023-07-31T15:27:14;29.40;90.90
1686;DHT22;840;47.980;7.830;2023-07-31T15:29:41;29.20;89.30
1686;DHT22;840;47.980;7.830;2023-07-31T15:32:09;29.00;90.70
1686;DHT22;840;47.980;7.830;2023-07-31T15:34:38;28.60;87.80
1686;DHT22;840;47.980;7.830;2023-07-31T15:37:11;28.30;90.40
1686;DHT22;840;47.980;7.830;2023-07-31T15:39:42;28.10;90.30
1686;DHT22;840;47.980;7.830;2023-07-31T15:42:15;28.00;90.50
1686;DHT22;840;47.980;7.830;2023-07-31T15:44:57;27.90;90.20
1686;DHT22;840;47.980;7.830;2023-07-31T15:47:30;27.90;90.00
1686;DHT22;840;47.980;7.830;2023-07-31T15:49:57;27.80;90.20
1686;DHT22;840;47.980;7.830;2023-07-31T15:52:24;27.70;90.30
1686;DHT22;840;47.980;7.830;2023-07-31T15:54:51;27.50;90.10
1686;DHT22;840;47.980;7.830;2023-07-31T15:57:17;27.40;90.60
1686;DHT22;840;47.980;7.830;2023-07-31T15:59:44;27.40;92.60
1686;DHT22;840;47.980;7.830;2023-07-31T16:02:11;27.40;91.90
1686;DHT22;840;47.980;7.830;2023-07-31T16:04:40;27.20;91.40
1686;DHT22;840;47.980;7.830;2023-07-31T16:07:07;27.10;92.10
1686;DHT22;840;47.980;7.830;2023-07-31T16:09:33;27.00;91.90
1686;DHT22;840;47.980;7.830;2023-07-31T16:12:00;26.90;92.30
1686;DHT22;840;47.980;7.830;2023-07-31T16:14:27;26.80;93.30
1686;DHT22;840;47.980;7.830;2023-07-31T16:16:54;26.60;95.40
1686;DHT22;840;47.980;7.830;2023-07-31T16:19:21;26.40;97.00
1686;DHT22;840;47.980;7.830;2023-07-31T16:21:49;26.10;97.80